sensor_id;sensor_type;location;lat;lon;timestamp;temperature;humidity
1277;DHT22;631;51.024;13.826;2023-05-29T00:02:07;11.50;99.90
1277;DHT22;631;51.024;13.826;2023-05-29T00:04:33;11.40;99.90
1277;DHT22;631;51.024;13.826;2023-05-29T00:06:59;11.40;99.90
1277;DHT22;631;51.024;13.826;2023-05-29T00:09:24;11.30;99.90
1277;DHT22;631;51.024;13.826;2023-05-29T00:11:50;11.20;99.90
1277;DHT22;631;51.024;13.826;2023-05-29T00:14:21;11.20;99.90
1277;DHT22;631;51.024;13.826;2023-05-29T00:16:49;11.10;99.90
1277;DHT22;631;51.024;13.826;2023-05-29T00:19:15;11.00;99.90
1277;DHT22;631;51.024;13.826;2023-05-29T00:21:47;11.00;99.90
1277;DHT22;631;51.024;13.826;2023-05-29T00:24:16;11.00;99.90
1277;DHT22;631;51.024;13.826;2023-05-29T00:26:43;10.90;99.90
1277;DHT22;631;51.024;13.826;2023-05-29T00:29:09;10.90;99.90
1277;DHT22;631;51.024;13.826;2023-05-29T00:31:35;10.80;99.90
1277;DHT22;631;51.024;13.826;2023-05-29T00:34:01;10.80;99.90
1277;DHT22;631;51.024;13.826;2023-05-29T00:36:27;10.70;99.90
1277;DHT22;631;51.024;13.826;2023-05-29T00:38:55;10.70;99.90
1277;DHT22;631;51.024;13.826;2023-05-29T00:41:20;10.60;99.90
1277;DHT22;631;51.024;13.826;2023-05-29T00:43:46;10.60;99.90
1277;DHT22;631;51.024;13.826;2023-05-29T00:46:13;10.60;99.90
1277;DHT22;631;51.024;13.826;2023-05-29T00:48:41;10.50;99.90
1277;DHT22;631;51.024;13.826;2023-05-29T00:51:07;10.50;99.90
1277;DHT22;631;51.024;13.826;2023-05-29T00:53:34;10.40;99.90
1277;DHT22;631;51.024;13.826;2023-05-29T00:56:00;10.40;99.90
1277;DHT22;631;51.024;13.826;2023-05-29T00:58:26;10.40;99.90
1277;DHT22;631;51.024;13.826;2023-05-29T01:00:52;10.40;99.90
1277;DHT22;631;51.024;13.826;2023-05-29T01:03:20;10.30;99.90
1277;DHT22;631;51.024;13.826;2023-05-29T01:05:48;10.20;99.90
1277;DHT22;631;51.024;13.826;2023-05-29T01:08:14;10.20;99.90
1277;DHT22;631;51.024;13.826;2023-05-29T01:10:40;10.10;99.90
1277;DHT22;631;51.024;13.826;2023-05-29T01:13:23;10.10;99.90
1277;DHT22;631;51.024;13.826;2023-05-29T01:16:01;10.00;99.90
1277;DHT22;631;51.024;13.826;2023-05-29T01:21:21;9.90;99.90
1277;DHT22;631;51.024;13.826;2023-05-29T01:24:18;9.90;99.90
1277;DHT22;631;51.024;13.826;2023-05-29T01:26:48;9.90;99.90
1277;DHT22;631;51.024;13.826;2023-05-29T01:29:23;9.80;99.90
1277;DHT22;631;51.024;13.826;2023-05-29T01:31:50;9.80;99.90
1277;DHT22;631;51.024;13.826;2023-05-29T01:34:17;9.70;99.90
1277;DHT22;631;51.024;13.826;2023-05-29T01:36:42;9.70;99.90
1277;DHT22;631;51.024;13.826;2023-05-29T01:39:09;9.60;99.90
1277;DHT22;631;51.024;13.826;2023-05-29T01:41:35;9.60;99.90
1277;DHT22;631;51.024;13.826;2023-05-29T01:44:03;9.60;99.90
1277;DHT22;631;51.024;13.826;2023-05-29T01:46:30;9.60;99.90
1277;DHT22;631;51.024;13.826;2023-05-29T01:48:55;9.50;99.90
1277;DHT22;631;51.024;13.826;2023-05-29T01:51:21;9.50;99.90
1277;DHT22;631;51.024;13.826;2023-05-29T01:53:47;9.40;99.90
1277;DHT22;631;51.024;13.826;2023-05-29T01:56:13;9.40;99.90
1277;DHT22;631;51.024;13.826;2023-05-29T01:58:40;9.30;99.90
1277;DHT22;631;51.024;13.826;2023-05-29T02:01:06;9.30;99.90
1277;DHT22;631;51.024;13.826;2023-05-29T02:03:33;9.30;99.90
1277;DHT22;631;51.024;13.826;2023-05-29T02:05:59;9.20;99.90
1277;DHT22;631;51.024;13.826;2023-05-29T02:08:26;9.20;99.90
1277;DHT22;631;51.024;13.826;2023-05-29T02:10:51;9.20;99.90
1277;DHT22;631;51.024;13.826;2023-05-29T02:13:17;9.10;99.90
1277;DHT22;631;51.024;13.826;2023-05-29T02:15:43;9.10;99.90
1277;DHT22;631;51.024;13.826;2023-05-29T02:18:10;9.10;99.90
1277;DHT22;631;51.024;13.826;2023-05-29T02:20:37;9.00;99.90
1277;DHT22;631;51.024;13.826;2023-05-29T02:23:03;9.00;99.90
1277;DHT22;631;51.024;13.826;2023-05-29T02:25:29;9.00;99.90
1277;DHT22;631;51.024;13.826;2023-05-29T02:27:54;9.00;99.90
1277;DHT22;631;51.024;13.826;2023-05-29T02:30:20;9.00;99.90
1277;DHT22;631;51.024;13.826;2023-05-29T02:32:46;9.00;99.90
1277;DHT22;631;51.024;13.826;2023-05-29T02:35:11;8.90;99.90
1277;DHT22;631;51.024;13.826;2023-05-29T02:37:40;8.90;99.90
1277;DHT22;631;51.024;13.826;2023-05-29T02:40:06;8.80;99.90
1277;DHT22;631;51.024;13.826;2023-05-29T02:42:33;8.80;99.90
1277;DHT22;631;51.024;13.826;2023-05-29T02:44:59;8.80;99.90
1277;DHT22;631;51.024;13.826;2023-05-29T02:47:25;8.80;99.90
1277;DHT22;631;51.024;13.826;2023-05-29T02:49:51;8.70;99.90
1277;DHT22;631;51.024;13.826;2023-05-29T02:52:16;8.70;99.90
1277;DHT22;631;51.024;13.826;2023-05-29T02:54:42;8.70;99.90
1277;DHT22;631;51.024;13.826;2023-05-29T02:57:07;8.60;99.90
1277;DHT22;631;51.024;13.826;2023-05-29T02:59:33;8.60;99.90
1277;DHT22;631;51.024;13.826;2023-05-29T03:01:59;8.60;99.90
1277;DHT22;631;51.024;13.826;2023-05-29T03:04:25;8.60;99.90
1277;DHT22;631;51.024;13.826;2023-05-29T03:06:51;8.60;99.90
1277;DHT22;631;51.024;13.826;2023-05-29T03:09:18;8.50;99.90
1277;DHT22;631;51.024;13.826;2023-05-29T03:11:43;8.50;99.90
1277;DHT22;631;51.024;13.826;2023-05-29T03:14:10;8.60;99.90
1277;DHT22;631;51.024;13.826;2023-05-29T03:16:36;8.50;99.90
1277;DHT22;631;51.024;13.826;2023-05-29T03:19:03;8.50;99.90
1277;DHT22;631;51.024;13.826;2023-05-29T03:21:29;8.50;99.90
1277;DHT22;631;51.024;13.826;2023-05-29T03:23:56;8.50;99.90
1277;DHT22;631;51.024;13.826;2023-05-29T03:26:22;8.50;99.90
1277;DHT22;631;51.024;13.826;2023-05-29T03:28:47;8.50;99.90
1277;DHT22;631;51.024;13.826;2023-05-29T03:31:13;8.50;99.90
1277;DHT22;631;51.024;13.826;2023-05-29T03:33:39;8.40;99.90
1277;DHT22;631;51.024;13.826;2023-05-29T03:36:04;8.40;99.90
1277;DHT22;631;51.024;13.826;2023-05-29T03:38:30;8.40;99.90
1277;DHT22;631;51.024;13.826;2023-05-29T03:40:56;8.30;99.90
1277;DHT22;631;51.024;13.826;2023-05-29T03:43:21;8.30;99.90
1277;DHT22;631;51.024;13.826;2023-05-29T03:45:47;8.40;99.90
1277;DHT22;631;51.024;13.826;2023-05-29T03:48:13;8.30;99.90
1277;DHT22;631;51.024;13.826;2023-05-29T03:50:40;8.30;99.90
1277;DHT22;631;51.024;13.826;2023-05-29T03:53:06;8.30;99.90
1277;DHT22;631;51.024;13.826;2023-05-29T03:55:31;8.40;99.90
1277;DHT22;631;51.024;13.826;2023-05-29T03:57:57;8.40;99.90
1277;DHT22;631;51.024;13.826;2023-05-29T04:00:23;8.40;99.90
1277;DHT22;631;51.024;13.826;2023-05-29T04:02:48;8.50;99.90
1277;DHT22;631;51.024;13.826;2023-05-29T04:05:14;8.50;99.90
1277;DHT22;631;51.024;13.826;2023-05-29T04:07:39;8.50;99.90
1277;DHT22;631;51.024;13.826;2023-05-29T04:10:06;8.60;99.90
1277;DHT22;631;51.024;13.826;2023-05-29T04:12:35;8.60;99.90
1277;DHT22;631;51.024;13.826;2023-05-29T04:15:00;8.70;99.90
1277;DHT22;631;51.024;13.826;2023-05-29T04:17:26;8.70;99.90
1277;DHT22;631;51.024;13.826;2023-05-29T04:19:52;8.80;99.90
1277;DHT22;631;51.024;13.826;2023-05-29T04:22:17;8.80;99.90
1277;DHT22;631;51.024;13.826;2023-05-29T04:24:45;8.80;99.90
1277;DHT22;631;51.024;13.826;2023-05-29T04:27:10;8.80;99.90
1277;DHT22;631;51.024;13.826;2023-05-29T04:29:40;8.90;99.90
1277;DHT22;631;51.024;13.826;2023-05-29T04:32:07;8.90;99.90
1277;DHT22;631;51.024;13.826;2023-05-29T04:34:35;8.90;99.90
1277;DHT22;631;51.024;13.826;2023-05-29T04:37:04;9.00;99.90
1277;DHT22;631;51.024;13.826;2023-05-29T04:39:30;9.00;99.90
1277;DHT22;631;51.024;13.826;2023-05-29T04:41:56;9.00;99.90
1277;DHT22;631;51.024;13.826;2023-05-29T04:44:25;9.10;99.90
1277;DHT22;631;51.024;13.826;2023-05-29T04:46:54;9.10;99.90
1277;DHT22;631;51.024;13.826;2023-05-29T04:49:22;9.20;99.90
1277;DHT22;631;51.024;13.826;2023-05-29T04:51:48;9.30;99.90
1277;DHT22;631;51.024;13.826;2023-05-29T04:54:13;9.30;99.90
1277;DHT22;631;51.024;13.826;2023-05-29T04:56:39;9.30;99.90
1277;DHT22;631;51.024;13.826;2023-05-29T04:59:08;9.40;99.90
1277;DHT22;631;51.024;13.826;2023-05-29T05:01:34;9.50;99.90
1277;DHT22;631;51.024;13.826;2023-05-29T05:04:00;9.50;99.90
1277;DHT22;631;51.024;13.826;2023-05-29T05:06:26;9.60;99.90
1277;DHT22;631;51.024;13.826;2023-05-29T05:08:52;9.60;99.90
1277;DHT22;631;51.024;13.826;2023-05-29T05:11:18;9.70;99.90
1277;DHT22;631;51.024;13.826;2023-05-29T05:13:44;9.70;99.90
1277;DHT22;631;51.024;13.826;2023-05-29T05:16:09;9.80;99.90
1277;DHT22;631;51.024;13.826;2023-05-29T05:18:36;9.80;99.90
1277;DHT22;631;51.024;13.826;2023-05-29T05:21:02;9.90;99.90
1277;DHT22;631;51.024;13.826;2023-05-29T05:23:29;10.00;99.90
1277;DHT22;631;51.024;13.826;2023-05-29T05:25:55;10.10;99.90
1277;DHT22;631;51.024;13.826;2023-05-29T05:28:21;10.20;99.90
1277;DHT22;631;51.024;13.826;2023-05-29T05:30:47;10.20;99.90
1277;DHT22;631;51.024;13.826;2023-05-29T05:33:12;10.30;99.90
1277;DHT22;631;51.024;13.826;2023-05-29T05:35:38;10.30;99.90
1277;DHT22;631;51.024;13.826;2023-05-29T05:38:04;10.40;99.90
1277;DHT22;631;51.024;13.826;2023-05-29T05:40:30;10.50;99.90
1277;DHT22;631;51.024;13.826;2023-05-29T05:42:55;10.60;99.90
1277;DHT22;631;51.024;13.826;2023-05-29T05:45:21;10.60;99.90
1277;DHT22;631;51.024;13.826;2023-05-29T05:47:47;10.70;99.90
1277;DHT22;631;51.024;13.826;2023-05-29T05:50:13;10.80;99.90
1277;DHT22;631;51.024;13.826;2023-05-29T05:52:38;10.90;99.90
1277;DHT22;631;51.024;13.826;2023-05-29T05:55:04;11.10;99.90
1277;DHT22;631;51.024;13.826;2023-05-29T05:57:30;11.20;99.90
1277;DHT22;631;51.024;13.826;2023-05-29T05:59:58;11.30;99.90
1277;DHT22;631;51.024;13.826;2023-05-29T06:02:24;11.40;99.90
1277;DHT22;631;51.024;13.826;2023-05-29T06:04:50;11.60;99.90
1277;DHT22;631;51.024;13.826;2023-05-29T06:07:16;11.70;99.90
1277;DHT22;631;51.024;13.826;2023-05-29T06:09:41;11.80;99.90
1277;DHT22;631;51.024;13.826;2023-05-29T06:12:07;11.90;99.90
1277;DHT22;631;51.024;13.826;2023-05-29T06:14:34;11.90;99.90
1277;DHT22;631;51.024;13.826;2023-05-29T06:17:00;12.00;99.90
1277;DHT22;631;51.024;13.826;2023-05-29T06:19:26;12.00;99.90
1277;DHT22;631;51.024;13.826;2023-05-29T06:21:51;12.10;99.90
1277;DHT22;631;51.024;13.826;2023-05-29T06:24:17;12.20;99.90
1277;DHT22;631;51.024;13.826;2023-05-29T06:26:42;12.30;99.90
1277;DHT22;631;51.024;13.826;2023-05-29T06:29:08;12.40;99.90
1277;DHT22;631;51.024;13.826;2023-05-29T06:31:33;12.50;99.90
1277;DHT22;631;51.024;13.826;2023-05-29T06:33:59;12.60;99.90
1277;DHT22;631;51.024;13.826;2023-05-29T06:36:25;12.80;99.90
1277;DHT22;631;51.024;13.826;2023-05-29T06:38:51;12.90;99.90
1277;DHT22;631;51.024;13.826;2023-05-29T06:41:17;13.00;99.90
1277;DHT22;631;51.024;13.826;2023-05-29T06:43:42;13.20;99.90
1277;DHT22;631;51.024;13.826;2023-05-29T06:46:09;13.30;99.90
1277;DHT22;631;51.024;13.826;2023-05-29T06:48:35;13.40;99.90
1277;DHT22;631;51.024;13.826;2023-05-29T06:51:04;13.60;99.90
1277;DHT22;631;51.024;13.826;2023-05-29T06:53:38;13.60;99.90
1277;DHT22;631;51.024;13.826;2023-05-29T06:56:04;13.80;99.90
1277;DHT22;631;51.024;13.826;2023-05-29T06:58:31;13.90;99.90
1277;DHT22;631;51.024;13.826;2023-05-29T07:00:57;14.00;99.90
1277;DHT22;631;51.024;13.826;2023-05-29T07:03:25;14.10;99.90
1277;DHT22;631;51.024;13.826;2023-05-29T07:05:51;14.30;99.90
1277;DHT22;631;51.024;13.826;2023-05-29T07:08:17;14.30;99.90
1277;DHT22;631;51.024;13.826;2023-05-29T07:10:43;14.50;99.90
1277;DHT22;631;51.024;13.826;2023-05-29T07:13:09;14.60;99.60
1277;DHT22;631;51.024;13.826;2023-05-29T07:15:34;14.80;99.40
1277;DHT22;631;51.024;13.826;2023-05-29T07:18:00;15.00;98.90
1277;DHT22;631;51.024;13.826;2023-05-29T07:20:26;15.20;98.10
1277;DHT22;631;51.024;13.826;2023-05-29T07:22:51;15.30;98.10
1277;DHT22;631;51.024;13.826;2023-05-29T07:25:17;15.50;97.50
1277;DHT22;631;51.024;13.826;2023-05-29T07:27:43;15.60;96.30
1277;DHT22;631;51.024;13.826;2023-05-29T07:30:09;15.80;96.80
1277;DHT22;631;51.024;13.826;2023-05-29T07:32:34;16.00;95.70
1277;DHT22;631;51.024;13.826;2023-05-29T07:35:00;16.20;95.00
1277;DHT22;631;51.024;13.826;2023-05-29T07:37:26;16.30;94.90
1277;DHT22;631;51.024;13.826;2023-05-29T07:39:51;16.30;94.00
1277;DHT22;631;51.024;13.826;2023-05-29T07:42:17;16.50;94.00
1277;DHT22;631;51.024;13.826;2023-05-29T07:44:42;16.60;93.60
1277;DHT22;631;51.024;13.826;2023-05-29T07:47:11;16.80;93.20
1277;DHT22;631;51.024;13.826;2023-05-29T07:49:37;17.00;93.30
1277;DHT22;631;51.024;13.826;2023-05-29T07:52:03;17.10;92.80
1277;DHT22;631;51.024;13.826;2023-05-29T07:54:30;17.40;92.20
1277;DHT22;631;51.024;13.826;2023-05-29T07:56:58;17.60;91.10
1277;DHT22;631;51.024;13.826;2023-05-29T07:59:25;17.80;90.50
1277;DHT22;631;51.024;13.826;2023-05-29T08:01:50;17.90;90.10
1277;DHT22;631;51.024;13.826;2023-05-29T08:04:16;18.00;89.20
1277;DHT22;631;51.024;13.826;2023-05-29T08:06:41;18.20;87.00
1277;DHT22;631;51.024;13.826;2023-05-29T08:09:09;18.30;86.80
1277;DHT22;631;51.024;13.826;2023-05-29T08:11:36;18.50;84.00
1277;DHT22;631;51.024;13.826;2023-05-29T08:14:02;18.60;84.60
1277;DHT22;631;51.024;13.826;2023-05-29T08:16:27;18.80;81.80
1277;DHT22;631;51.024;13.826;2023-05-29T08:18:53;19.00;80.40
1277;DHT22;631;51.024;13.826;2023-05-29T08:21:19;19.20;79.10
1277;DHT22;631;51.024;13.826;2023-05-29T08:23:44;19.40;75.60
1277;DHT22;631;51.024;13.826;2023-05-29T08:26:10;19.50;72.60
1277;DHT22;631;51.024;13.826;2023-05-29T08:28:36;19.70;73.70
1277;DHT22;631;51.024;13.826;2023-05-29T08:31:01;19.80;69.30
1277;DHT22;631;51.024;13.826;2023-05-29T08:33:27;20.00;68.30
1277;DHT22;631;51.024;13.826;2023-05-29T08:35:53;20.20;65.20
1277;DHT22;631;51.024;13.826;2023-05-29T08:38:18;20.40;63.40
1277;DHT22;631;51.024;13.826;2023-05-29T08:40:47;20.60;59.90
1277;DHT22;631;51.024;13.826;2023-05-29T08:43:20;20.70;57.00
1277;DHT22;631;51.024;13.826;2023-05-29T08:45:50;20.90;57.80
1277;DHT22;631;51.024;13.826;2023-05-29T08:48:18;21.10;56.50
1277;DHT22;631;51.024;13.826;2023-05-29T08:50:46;21.30;55.60
1277;DHT22;631;51.024;13.826;2023-05-29T08:53:15;21.60;54.70
1277;DHT22;631;51.024;13.826;2023-05-29T08:55:42;21.90;54.00
1277;DHT22;631;51.024;13.826;2023-05-29T08:58:09;22.20;51.30
1277;DHT22;631;51.024;13.826;2023-05-29T09:00:35;22.50;49.00
1277;DHT22;631;51.024;13.826;2023-05-29T09:03:02;22.70;49.30
1277;DHT22;631;51.024;13.826;2023-05-29T09:05:28;22.90;49.60
1277;DHT22;631;51.024;13.826;2023-05-29T09:07:55;23.30;43.80
1277;DHT22;631;51.024;13.826;2023-05-29T09:10:22;23.50;40.90
1277;DHT22;631;51.024;13.826;2023-05-29T09:12:48;23.70;41.00
1277;DHT22;631;51.024;13.826;2023-05-29T09:15:20;24.00;40.20
1277;DHT22;631;51.024;13.826;2023-05-29T09:17:53;24.30;39.90
1277;DHT22;631;51.024;13.826;2023-05-29T09:20:20;24.70;38.60
1277;DHT22;631;51.024;13.826;2023-05-29T09:22:56;25.10;38.80
1277;DHT22;631;51.024;13.826;2023-05-29T09:25:26;25.60;37.80
1277;DHT22;631;51.024;13.826;2023-05-29T09:27:56;26.00;36.50
1277;DHT22;631;51.024;13.826;2023-05-29T09:30:34;26.60;34.30
1277;DHT22;631;51.024;13.826;2023-05-29T09:33:00;27.30;32.10
1277;DHT22;631;51.024;13.826;2023-05-29T09:35:35;27.80;31.70
1277;DHT22;631;51.024;13.826;2023-05-29T09:38:01;28.40;30.00
1277;DHT22;631;51.024;13.826;2023-05-29T09:40:31;28.80;28.10
1277;DHT22;631;51.024;13.826;2023-05-29T09:43:23;29.20;27.90
1277;DHT22;631;51.024;13.826;2023-05-29T09:45:49;29.60;25.10
1277;DHT22;631;51.024;13.826;2023-05-29T09:48:22;30.10;25.60
1277;DHT22;631;51.024;13.826;2023-05-29T09:50:48;30.40;24.20
1277;DHT22;631;51.024;13.826;2023-05-29T09:53:17;30.60;24.20
1277;DHT22;631;51.024;13.826;2023-05-29T09:55:45;30.90;22.60
1277;DHT22;631;51.024;13.826;2023-05-29T09:58:13;31.10;23.10
1277;DHT22;631;51.024;13.826;2023-05-29T10:00:44;31.40;21.30
1277;DHT22;631;51.024;13.826;2023-05-29T10:03:13;31.60;21.00
1277;DHT22;631;51.024;13.826;2023-05-29T10:05:40;32.00;20.70
1277;DHT22;631;51.024;13.826;2023-05-29T10:08:09;32.00;20.60
1277;DHT22;631;51.024;13.826;2023-05-29T10:10:38;32.50;19.90
1277;DHT22;631;51.024;13.826;2023-05-29T10:13:06;32.70;18.80
1277;DHT22;631;51.024;13.826;2023-05-29T10:15:36;33.00;19.70
1277;DHT22;631;51.024;13.826;2023-05-29T10:18:03;33.30;18.90
1277;DHT22;631;51.024;13.826;2023-05-29T10:20:31;33.60;19.30
1277;DHT22;631;51.024;13.826;2023-05-29T10:23:00;33.90;18.50
1277;DHT22;631;51.024;13.826;2023-05-29T10:25:29;33.80;17.00
1277;DHT22;631;51.024;13.826;2023-05-29T10:27:56;34.20;16.80
1277;DHT22;631;51.024;13.826;2023-05-29T10:30:50;34.20;17.00
1277;DHT22;631;51.024;13.826;2023-05-29T10:36:20;34.80;15.70
1277;DHT22;631;51.024;13.826;2023-05-29T10:38:48;34.40;14.70
1277;DHT22;631;51.024;13.826;2023-05-29T10:43:59;32.20;17.00
1277;DHT22;631;51.024;13.826;2023-05-29T10:49:36;32.40;17.80
1277;DHT22;631;51.024;13.826;2023-05-29T10:52:03;33.10;17.00
1277;DHT22;631;51.024;13.826;2023-05-29T10:54:40;33.50;16.40
1277;DHT22;631;51.024;13.826;2023-05-29T10:57:07;34.30;16.60
1277;DHT22;631;51.024;13.826;2023-05-29T10:59:37;34.80;14.90
1277;DHT22;631;51.024;13.826;2023-05-29T11:02:04;35.30;15.80
1277;DHT22;631;51.024;13.826;2023-05-29T11:04:32;35.60;14.70
1277;DHT22;631;51.024;13.826;2023-05-29T11:06:58;35.40;14.60
1277;DHT22;631;51.024;13.826;2023-05-29T11:12:11;36.10;15.20
1277;DHT22;631;51.024;13.826;2023-05-29T11:15:09;36.20;13.00
1277;DHT22;631;51.024;13.826;2023-05-29T11:20:09;34.60;15.10
1277;DHT22;631;51.024;13.826;2023-05-29T11:25:20;32.80;15.90
1277;DHT22;631;51.024;13.826;2023-05-29T11:27:46;31.80;16.90
1277;DHT22;631;51.024;13.826;2023-05-29T11:30:12;31.20;18.80
1277;DHT22;631;51.024;13.826;2023-05-29T11:32:39;30.60;18.60
1277;DHT22;631;51.024;13.826;2023-05-29T11:35:09;30.60;19.40
1277;DHT22;631;51.024;13.826;2023-05-29T11:37:38;30.50;19.00
1277;DHT22;631;51.024;13.826;2023-05-29T11:40:06;30.60;19.10
1277;DHT22;631;51.024;13.826;2023-05-29T11:42:32;30.80;18.80
1277;DHT22;631;51.024;13.826;2023-05-29T11:50:23;30.50;19.40
1277;DHT22;631;51.024;13.826;2023-05-29T11:52:49;30.50;18.90
1277;DHT22;631;51.024;13.826;2023-05-29T11:55:17;30.50;19.70
1277;DHT22;631;51.024;13.826;2023-05-29T11:57:43;30.40;19.40
1277;DHT22;631;51.024;13.826;2023-05-29T12:00:13;30.10;19.20
1277;DHT22;631;51.024;13.826;2023-05-29T12:02:39;30.10;19.40
1277;DHT22;631;51.024;13.826;2023-05-29T12:05:06;29.90;19.10
1277;DHT22;631;51.024;13.826;2023-05-29T12:07:35;29.80;19.80
1277;DHT22;631;51.024;13.826;2023-05-29T12:10:10;29.90;20.00
1277;DHT22;631;51.024;13.826;2023-05-29T12:12:36;30.20;20.00
1277;DHT22;631;51.024;13.826;2023-05-29T12:15:02;30.10;19.40
1277;DHT22;631;51.024;13.826;2023-05-29T12:17:31;29.90;19.60
1277;DHT22;631;51.024;13.826;2023-05-29T12:19:57;29.60;19.80
1277;DHT22;631;51.024;13.826;2023-05-29T12:22:36;29.60;20.30
1277;DHT22;631;51.024;13.826;2023-05-29T12:27:32;29.20;21.30
1277;DHT22;631;51.024;13.826;2023-05-29T12:30:04;29.30;20.80
1277;DHT22;631;51.024;13.826;2023-05-29T12:32:41;29.60;20.50
1277;DHT22;631;51.024;13.826;2023-05-29T12:35:27;29.90;19.20
1277;DHT22;631;51.024;13.826;2023-05-29T12:38:04;30.30;19.40
1277;DHT22;631;51.024;13.826;2023-05-29T12:40:31;30.70;18.90
1277;DHT22;631;51.024;13.826;2023-05-29T12:43:03;31.20;19.80
1277;DHT22;631;51.024;13.826;2023-05-29T12:45:30;31.60;18.80
1277;DHT22;631;51.024;13.826;2023-05-29T12:50:25;32.30;17.70
1277;DHT22;631;51.024;13.826;2023-05-29T12:53:05;32.20;17.80
1277;DHT22;631;51.024;13.826;2023-05-29T12:55:32;31.80;17.90
1277;DHT22;631;51.024;13.826;2023-05-29T12:58:10;31.50;17.70
1277;DHT22;631;51.024;13.826;2023-05-29T13:00:37;31.40;18.20
1277;DHT22;631;51.024;13.826;2023-05-29T13:03:07;31.60;18.00
1277;DHT22;631;51.024;13.826;2023-05-29T13:05:33;32.00;17.90
1277;DHT22;631;51.024;13.826;2023-05-29T13:07:58;32.50;16.80
1277;DHT22;631;51.024;13.826;2023-05-29T13:10:25;33.30;16.90
1277;DHT22;631;51.024;13.826;2023-05-29T13:12:52;34.00;16.40
1277;DHT22;631;51.024;13.826;2023-05-29T13:15:23;34.20;15.90
1277;DHT22;631;51.024;13.826;2023-05-29T13:17:49;33.80;15.30
1277;DHT22;631;51.024;13.826;2023-05-29T13:20:15;33.40;15.90
1277;DHT22;631;51.024;13.826;2023-05-29T13:22:43;33.30;16.40
1277;DHT22;631;51.024;13.826;2023-05-29T13:25:11;33.10;15.80
1277;DHT22;631;51.024;13.826;2023-05-29T13:27:39;32.50;16.30
1277;DHT22;631;51.024;13.826;2023-05-29T13:30:06;31.90;16.70
1277;DHT22;631;51.024;13.826;2023-05-29T13:32:32;31.50;17.20
1277;DHT22;631;51.024;13.826;2023-05-29T13:34:57;31.70;17.50
1277;DHT22;631;51.024;13.826;2023-05-29T13:37:23;32.30;17.80
1277;DHT22;631;51.024;13.826;2023-05-29T13:39:49;33.10;16.70
1277;DHT22;631;51.024;13.826;2023-05-29T13:42:17;33.90;16.60
1277;DHT22;631;51.024;13.826;2023-05-29T13:44:42;34.50;15.30
1277;DHT22;631;51.024;13.826;2023-05-29T13:47:08;34.10;15.60
1277;DHT22;631;51.024;13.826;2023-05-29T13:49:34;33.70;15.70
1277;DHT22;631;51.024;13.826;2023-05-29T13:52:01;33.00;16.20
1277;DHT22;631;51.024;13.826;2023-05-29T13:54:27;32.30;17.00
1277;DHT22;631;51.024;13.826;2023-05-29T13:56:57;31.70;17.10
1277;DHT22;631;51.024;13.826;2023-05-29T13:59:23;31.30;17.60
1277;DHT22;631;51.024;13.826;2023-05-29T14:01:49;31.20;17.80
1277;DHT22;631;51.024;13.826;2023-05-29T14:04:15;31.10;17.40
1277;DHT22;631;51.024;13.826;2023-05-29T14:06:41;31.20;17.30
1277;DHT22;631;51.024;13.826;2023-05-29T14:09:06;31.00;17.30
1277;DHT22;631;51.024;13.826;2023-05-29T14:11:36;30.90;18.60
1277;DHT22;631;51.024;13.826;2023-05-29T14:14:05;31.10;17.80
1277;DHT22;631;51.024;13.826;2023-05-29T14:16:32;31.70;18.50
1277;DHT22;631;51.024;13.826;2023-05-29T14:18:58;32.50;17.70
1277;DHT22;631;51.024;13.826;2023-05-29T14:21:24;33.20;16.80
1277;DHT22;631;51.024;13.826;2023-05-29T14:23:49;33.70;16.70
1277;DHT22;631;51.024;13.826;2023-05-29T14:26:15;33.90;16.60
1277;DHT22;631;51.024;13.826;2023-05-29T14:28:41;34.10;16.40
1277;DHT22;631;51.024;13.826;2023-05-29T14:31:06;34.30;16.00
1277;DHT22;631;51.024;13.826;2023-05-29T14:33:32;34.60;16.70
1277;DHT22;631;51.024;13.826;2023-05-29T14:35:58;34.60;15.00
1277;DHT22;631;51.024;13.826;2023-05-29T14:38:24;33.80;15.10
1277;DHT22;631;51.024;13.826;2023-05-29T14:40:51;33.00;16.20
1277;DHT22;631;51.024;13.826;2023-05-29T14:43:16;32.30;17.40
1277;DHT22;631;51.024;13.826;2023-05-29T14:45:42;31.60;17.50
1277;DHT22;631;51.024;13.826;2023-05-29T14:48:07;31.30;18.30
1277;DHT22;631;51.024;13.826;2023-05-29T14:50:33;31.50;17.60
1277;DHT22;631;51.024;13.826;2023-05-29T14:52:59;31.60;17.90
1277;DHT22;631;51.024;13.826;2023-05-29T14:55:24;31.50;17.50
1277;DHT22;631;51.024;13.826;2023-05-29T14:57:50;31.20;17.80
1277;DHT22;631;51.024;13.826;2023-05-29T15:00:16;30.90;18.20
1277;DHT22;631;51.024;13.826;2023-05-29T15:02:42;30.50;19.00
1277;DHT22;631;51.024;13.826;2023-05-29T15:05:08;30.10;19.40
1277;DHT22;631;51.024;13.826;2023-05-29T15:07:33;29.60;19.60
1277;DHT22;631;51.024;13.826;2023-05-29T15:10:00;29.30;20.30
1277;DHT22;631;51.024;13.826;2023-05-29T15:12:26;29.00;20.10
1277;DHT22;631;51.024;13.826;2023-05-29T15:14:52;28.90;20.20
1277;DHT22;631;51.024;13.826;2023-05-29T15:17:18;28.90;20.70
1277;DHT22;631;51.024;13.826;2023-05-29T15:19:43;29.20;21.90
1277;DHT22;631;51.024;13.826;2023-05-29T15:22:09;29.70;21.10
1277;DHT22;631;51.024;13.826;2023-05-29T15:24:35;30.30;20.50
1277;DHT22;631;51.024;13.826;2023-05-29T15:27:01;30.70;19.90
1277;DHT22;631;51.024;13.826;2023-05-29T15:29:33;31.20;18.90
1277;DHT22;631;51.024;13.826;2023-05-29T15:32:02;31.40;18.80
1277;DHT22;631;51.024;13.826;2023-05-29T15:34:28;31.70;19.00
1277;DHT22;631;51.024;13.826;2023-05-29T15:36:54;31.70;17.60
1277;DHT22;631;51.024;13.826;2023-05-29T15:39:20;31.90;17.90
1277;DHT22;631;51.024;13.826;2023-05-29T15:41:46;32.10;17.90
1277;DHT22;631;51.024;13.826;2023-05-29T15:44:12;31.60;17.50
1277;DHT22;631;51.024;13.826;2023-05-29T15:46:38;31.00;18.50
1277;DHT22;631;51.024;13.826;2023-05-29T15:49:03;30.40;19.20
1277;DHT22;631;51.024;13.826;2023-05-29T15:51:29;29.90;19.60
1277;DHT22;631;51.024;13.826;2023-05-29T15:53:55;29.50;20.20
1277;DHT22;631;51.024;13.826;2023-05-29T15:56:20;29.00;21.00
1277;DHT22;631;51.024;13.826;2023-05-29T15:58:52;28.70;21.30
1277;DHT22;631;51.024;13.826;2023-05-29T16:01:18;28.60;21.30
1277;DHT22;631;51.024;13.826;2023-05-29T16:03:44;28.70;21.30
1277;DHT22;631;51.024;13.826;2023-05-29T16:06:09;29.00;21.20
1277;DHT22;631;51.024;13.826;2023-05-29T16:08:35;29.30;20.70
1277;DHT22;631;51.024;13.826;2023-05-29T16:11:01;29.40;20.20
1277;DHT22;631;51.024;13.826;2023-05-29T16:13:28;29.40;20.30
1277;DHT22;631;51.024;13.826;2023-05-29T16:15:58;29.70;20.60
1277;DHT22;631;51.024;13.826;2023-05-29T16:18:24;29.90;20.30
1277;DHT22;631;51.024;13.826;2023-05-29T16:20:50;30.00;20.10
1277;DHT22;631;51.024;13.826;2023-05-29T16:23:16;29.90;19.90
1277;DHT22;631;51.024;13.826;2023-05-29T16:25:44;29.70;20.60
1277;DHT22;631;51.024;13.826;2023-05-29T16:28:09;29.70;20.90
1277;DHT22;631;51.024;13.826;2023-05-29T16:30:35;29.70;21.00
1277;DHT22;631;51.024;13.826;2023-05-29T16:33:01;29.80;20.60
1277;DHT22;631;51.024;13.826;2023-05-29T16:35:26;29.90;21.10